Hermilo Alves, Brazil
Current Conditions -  °F | °C
As of 8:00 PM on Thursday 27 Nov 2014 (Local Time) from SBBQ Reporting Station
Light Rain Light Rain  
Wind Chill: 68°   Ceiling: 700
Heat Index: 68°   Visibility: 1.8mi
Dew Point: 66°   Wind: 6mph
Humidity: 94%   Direction: 170°S
Pressure: 30.03"   Gusts: NA
Location:  21.02°S, 43.79°W
Report Text: SBBQ 272200Z 17005KT 3000 -RA OVC007 20/19 Q1017
Loading
Personal Weather Stations






























Interactive Weather Map New forecast layout! Learn more

10-Day Weather Forecast

Advertisements
Track Severe Weather on mobile